sensor_id;sensor_type;location;lat;lon;timestamp;P1;durP1;ratioP1;P2;durP2;ratioP2
32198;SDS011;19221;42.656;21.156;2022-10-16T00:00:16;32.83;;;20.38;;
32198;SDS011;19221;42.656;21.156;2022-10-16T00:02:42;34.55;;;21.02;;
32198;SDS011;19221;42.656;21.156;2022-10-16T00:05:08;34.80;;;19.83;;
32198;SDS011;19221;42.656;21.156;2022-10-16T00:07:33;36.22;;;18.17;;
32198;SDS011;19221;42.656;21.156;2022-10-16T00:09:59;37.53;;;16.77;;
32198;SDS011;19221;42.656;21.156;2022-10-16T00:12:25;23.70;;;14.98;;
32198;SDS011;19221;42.656;21.156;2022-10-16T00:14:51;22.25;;;15.20;;
32198;SDS011;19221;42.656;21.156;2022-10-16T00:17:17;23.70;;;14.38;;
32198;SDS011;19221;42.656;21.156;2022-10-16T00:19:43;23.60;;;14.40;;
32198;SDS011;19221;42.656;21.156;2022-10-16T00:22:09;23.05;;;12.90;;
32198;SDS011;19221;42.656;21.156;2022-10-16T00:24:34;20.67;;;13.27;;
32198;SDS011;19221;42.656;21.156;2022-10-16T00:27:00;19.92;;;13.93;;
32198;SDS011;19221;42.656;21.156;2022-10-16T00:29:26;23.30;;;13.25;;
32198;SDS011;19221;42.656;21.156;2022-10-16T00:31:51;20.65;;;13.88;;
32198;SDS011;19221;42.656;21.156;2022-10-16T00:34:17;19.23;;;13.43;;
32198;SDS011;19221;42.656;21.156;2022-10-16T00:36:43;21.77;;;13.52;;
32198;SDS011;19221;42.656;21.156;2022-10-16T00:39:09;22.80;;;13.88;;
32198;SDS011;19221;42.656;21.156;2022-10-16T00:41:34;19.33;;;13.10;;
32198;SDS011;19221;42.656;21.156;2022-10-16T00:44:01;23.88;;;13.45;;
32198;SDS011;19221;42.656;21.156;2022-10-16T00:51:33;20.10;;;12.68;;
32198;SDS011;19221;42.656;21.156;2022-10-16T00:53:59;23.33;;;12.48;;
32198;SDS011;19221;42.656;21.156;2022-10-16T00:56:25;24.63;;;12.88;;
32198;SDS011;19221;42.656;21.156;2022-10-16T00:58:50;19.05;;;12.45;;
32198;SDS011;19221;42.656;21.156;2022-10-16T01:01:16;23.90;;;14.10;;
32198;SDS011;19221;42.656;21.156;2022-10-16T01:03:42;22.73;;;16.38;;
32198;SDS011;19221;42.656;21.156;2022-10-16T01:08:45;22.70;;;14.93;;
32198;SDS011;19221;42.656;21.156;2022-10-16T01:13:43;26.00;;;15.25;;
32198;SDS011;19221;42.656;21.156;2022-10-16T01:16:13;26.70;;;15.40;;
32198;SDS011;19221;42.656;21.156;2022-10-16T01:18:42;25.67;;;15.00;;
32198;SDS011;19221;42.656;21.156;2022-10-16T01:21:13;24.75;;;14.80;;
32198;SDS011;19221;42.656;21.156;2022-10-16T01:29:21;19.30;;;13.52;;
32198;SDS011;19221;42.656;21.156;2022-10-16T01:31:47;28.60;;;18.05;;
32198;SDS011;19221;42.656;21.156;2022-10-16T01:34:33;26.00;;;17.77;;
32198;SDS011;19221;42.656;21.156;2022-10-16T01:37:02;28.67;;;20.15;;
32198;SDS011;19221;42.656;21.156;2022-10-16T01:39:30;29.85;;;18.83;;
32198;SDS011;19221;42.656;21.156;2022-10-16T01:42:06;29.05;;;18.15;;
32198;SDS011;19221;42.656;21.156;2022-10-16T01:44:33;29.60;;;18.77;;
32198;SDS011;19221;42.656;21.156;2022-10-16T01:47:01;25.83;;;17.58;;
32198;SDS011;19221;42.656;21.156;2022-10-16T01:49:29;23.50;;;15.52;;
32198;SDS011;19221;42.656;21.156;2022-10-16T01:51:56;24.20;;;15.73;;
32198;SDS011;19221;42.656;21.156;2022-10-16T01:54:23;21.15;;;13.95;;
32198;SDS011;19221;42.656;21.156;2022-10-16T01:56:50;20.48;;;13.57;;
32198;SDS011;19221;42.656;21.156;2022-10-16T01:59:17;17.63;;;12.50;;
32198;SDS011;19221;42.656;21.156;2022-10-16T02:01:45;16.75;;;11.77;;
32198;SDS011;19221;42.656;21.156;2022-10-16T02:04:20;20.67;;;12.18;;
32198;SDS011;19221;42.656;21.156;2022-10-16T02:06:48;17.45;;;12.80;;
32198;SDS011;19221;42.656;21.156;2022-10-16T02:09:13;22.27;;;13.45;;
32198;SDS011;19221;42.656;21.156;2022-10-16T02:11:42;23.48;;;14.90;;
32198;SDS011;19221;42.656;21.156;2022-10-16T02:14:08;18.33;;;12.65;;
32198;SDS011;19221;42.656;21.156;2022-10-16T02:18:59;22.65;;;13.52;;
32198;SDS011;19221;42.656;21.156;2022-10-16T02:21:26;18.02;;;12.90;;
32198;SDS011;19221;42.656;21.156;2022-10-16T02:23:55;20.73;;;12.57;;
32198;SDS011;19221;42.656;21.156;2022-10-16T02:27:06;24.27;;;12.68;;
32198;SDS011;19221;42.656;21.156;2022-10-16T02:29:14;20.27;;;11.57;;
32198;SDS011;19221;42.656;21.156;2022-10-16T02:31:41;16.85;;;11.52;;
32198;SDS011;19221;42.656;21.156;2022-10-16T02:34:08;14.63;;;11.13;;
32198;SDS011;19221;42.656;21.156;2022-10-16T02:36:37;17.90;;;11.30;;
32198;SDS011;19221;42.656;21.156;2022-10-16T02:39:05;18.30;;;11.90;;
32198;SDS011;19221;42.656;21.156;2022-10-16T02:41:31;27.70;;;12.32;;
32198;SDS011;19221;42.656;21.156;2022-10-16T02:43:57;20.90;;;12.75;;
32198;SDS011;19221;42.656;21.156;2022-10-16T02:46:22;22.55;;;13.88;;
32198;SDS011;19221;42.656;21.156;2022-10-16T02:48:48;18.75;;;13.95;;
32198;SDS011;19221;42.656;21.156;2022-10-16T02:51:14;22.23;;;15.07;;
32198;SDS011;19221;42.656;21.156;2022-10-16T02:53:41;24.45;;;14.68;;
32198;SDS011;19221;42.656;21.156;2022-10-16T02:56:06;24.95;;;15.75;;
32198;SDS011;19221;42.656;21.156;2022-10-16T02:58:32;31.30;;;20.65;;
32198;SDS011;19221;42.656;21.156;2022-10-16T03:00:58;39.15;;;19.83;;
32198;SDS011;19221;42.656;21.156;2022-10-16T03:03:23;31.75;;;20.13;;
32198;SDS011;19221;42.656;21.156;2022-10-16T03:05:49;23.58;;;17.15;;
32198;SDS011;19221;42.656;21.156;2022-10-16T03:08:15;23.45;;;15.90;;
32198;SDS011;19221;42.656;21.156;2022-10-16T03:10:41;21.27;;;14.30;;
32198;SDS011;19221;42.656;21.156;2022-10-16T03:13:06;20.73;;;13.55;;
32198;SDS011;19221;42.656;21.156;2022-10-16T03:15:32;20.77;;;12.73;;
32198;SDS011;19221;42.656;21.156;2022-10-16T03:17:58;15.80;;;11.90;;
32198;SDS011;19221;42.656;21.156;2022-10-16T03:20:24;16.27;;;12.07;;
32198;SDS011;19221;42.656;21.156;2022-10-16T03:22:50;21.33;;;12.73;;
32198;SDS011;19221;42.656;21.156;2022-10-16T03:25:15;16.25;;;11.82;;
32198;SDS011;19221;42.656;21.156;2022-10-16T03:27:41;19.38;;;12.15;;
32198;SDS011;19221;42.656;21.156;2022-10-16T03:30:07;19.98;;;12.48;;
32198;SDS011;19221;42.656;21.156;2022-10-16T03:32:33;19.63;;;12.60;;
32198;SDS011;19221;42.656;21.156;2022-10-16T03:35:00;22.48;;;12.10;;
32198;SDS011;19221;42.656;21.156;2022-10-16T03:37:25;19.33;;;12.63;;
32198;SDS011;19221;42.656;21.156;2022-10-16T03:39:51;17.15;;;11.52;;
32198;SDS011;19221;42.656;21.156;2022-10-16T03:42:17;24.23;;;12.30;;
32198;SDS011;19221;42.656;21.156;2022-10-16T03:44:43;19.65;;;11.70;;
32198;SDS011;19221;42.656;21.156;2022-10-16T03:47:08;20.77;;;11.68;;
32198;SDS011;19221;42.656;21.156;2022-10-16T03:49:34;18.42;;;11.80;;
32198;SDS011;19221;42.656;21.156;2022-10-16T03:52:00;19.45;;;11.38;;
32198;SDS011;19221;42.656;21.156;2022-10-16T03:54:25;15.00;;;10.70;;
32198;SDS011;19221;42.656;21.156;2022-10-16T03:56:51;22.45;;;11.48;;
32198;SDS011;19221;42.656;21.156;2022-10-16T03:59:17;18.70;;;11.50;;
32198;SDS011;19221;42.656;21.156;2022-10-16T04:01:42;15.65;;;11.63;;
32198;SDS011;19221;42.656;21.156;2022-10-16T04:04:08;20.92;;;11.90;;
32198;SDS011;19221;42.656;21.156;2022-10-16T04:06:34;24.55;;;12.48;;
32198;SDS011;19221;42.656;21.156;2022-10-16T04:08:59;23.52;;;12.65;;
32198;SDS011;19221;42.656;21.156;2022-10-16T04:11:25;18.80;;;11.75;;
32198;SDS011;19221;42.656;21.156;2022-10-16T04:13:51;17.05;;;11.43;;
32198;SDS011;19221;42.656;21.156;2022-10-16T04:16:16;15.02;;;11.93;;
32198;SDS011;19221;42.656;21.156;2022-10-16T04:18:42;25.35;;;13.20;;
32198;SDS011;19221;42.656;21.156;2022-10-16T04:21:08;29.40;;;14.75;;
32198;SDS011;19221;42.656;21.156;2022-10-16T04:23:33;23.50;;;13.57;;
32198;SDS011;19221;42.656;21.156;2022-10-16T04:25:59;18.75;;;13.50;;
32198;SDS011;19221;42.656;21.156;2022-10-16T04:28:25;22.05;;;12.70;;
32198;SDS011;19221;42.656;21.156;2022-10-16T04:30:51;19.00;;;12.38;;
32198;SDS011;19221;42.656;21.156;2022-10-16T04:33:17;22.95;;;13.23;;
32198;SDS011;19221;42.656;21.156;2022-10-16T04:35:43;29.08;;;12.43;;
32198;SDS011;19221;42.656;21.156;2022-10-16T04:38:09;19.98;;;12.02;;
32198;SDS011;19221;42.656;21.156;2022-10-16T04:40:34;16.58;;;11.90;;
32198;SDS011;19221;42.656;21.156;2022-10-16T04:43:02;20.23;;;11.88;;
32198;SDS011;19221;42.656;21.156;2022-10-16T04:45:28;22.67;;;13.73;;
32198;SDS011;19221;42.656;21.156;2022-10-16T04:47:56;24.95;;;13.63;;
32198;SDS011;19221;42.656;21.156;2022-10-16T04:50:22;22.48;;;14.27;;
32198;SDS011;19221;42.656;21.156;2022-10-16T04:52:48;21.88;;;14.20;;
32198;SDS011;19221;42.656;21.156;2022-10-16T04:55:14;23.55;;;13.23;;
32198;SDS011;19221;42.656;21.156;2022-10-16T04:57:40;24.55;;;13.32;;
32198;SDS011;19221;42.656;21.156;2022-10-16T05:00:06;18.30;;;13.55;;
32198;SDS011;19221;42.656;21.156;2022-10-16T05:02:33;26.90;;;14.57;;
32198;SDS011;19221;42.656;21.156;2022-10-16T05:04:59;18.40;;;12.88;;
32198;SDS011;19221;42.656;21.156;2022-10-16T05:07:25;25.13;;;12.70;;
32198;SDS011;19221;42.656;21.156;2022-10-16T05:09:51;20.80;;;13.98;;
32198;SDS011;19221;42.656;21.156;2022-10-16T05:12:16;24.17;;;14.20;;
32198;SDS011;19221;42.656;21.156;2022-10-16T05:14:42;25.80;;;13.13;;
32198;SDS011;19221;42.656;21.156;2022-10-16T05:17:08;18.27;;;12.70;;
32198;SDS011;19221;42.656;21.156;2022-10-16T05:19:33;22.00;;;12.57;;
32198;SDS011;19221;42.656;21.156;2022-10-16T05:21:59;15.75;;;12.55;;
32198;SDS011;19221;42.656;21.156;2022-10-16T05:24:25;20.20;;;12.65;;
32198;SDS011;19221;42.656;21.156;2022-10-16T05:26:51;20.92;;;12.85;;
32198;SDS011;19221;42.656;21.156;2022-10-16T05:29:17;23.60;;;13.45;;
32198;SDS011;19221;42.656;21.156;2022-10-16T05:31:42;23.92;;;13.88;;
32198;SDS011;19221;42.656;21.156;2022-10-16T05:34:08;27.52;;;14.23;;
32198;SDS011;19221;42.656;21.156;2022-10-16T05:36:34;23.08;;;13.93;;
32198;SDS011;19221;42.656;21.156;2022-10-16T05:38:59;25.02;;;14.70;;
32198;SDS011;19221;42.656;21.156;2022-10-16T05:41:25;21.70;;;13.95;;
32198;SDS011;19221;42.656;21.156;2022-10-16T05:43:52;26.67;;;15.45;;
32198;SDS011;19221;42.656;21.156;2022-10-16T05:46:18;26.50;;;13.30;;
32198;SDS011;19221;42.656;21.156;2022-10-16T05:48:43;20.30;;;12.77;;
32198;SDS011;19221;42.656;21.156;2022-10-16T05:51:10;22.35;;;13.20;;
32198;SDS011;19221;42.656;21.156;2022-10-16T05:53:37;20.85;;;13.27;;
32198;SDS011;19221;42.656;21.156;2022-10-16T05:56:03;22.23;;;12.48;;
32198;SDS011;19221;42.656;21.156;2022-10-16T05:58:33;25.25;;;13.32;;
32198;SDS011;19221;42.656;21.156;2022-10-16T06:01:10;33.05;;;13.32;;
32198;SDS011;19221;42.656;21.156;2022-10-16T06:03:36;20.80;;;13.55;;
32198;SDS011;19221;42.656;21.156;2022-10-16T06:06:12;22.75;;;13.98;;
32198;SDS011;19221;42.656;21.156;2022-10-16T06:08:39;23.15;;;14.32;;
32198;SDS011;19221;42.656;21.156;2022-10-16T06:11:05;21.52;;;15.00;;
32198;SDS011;19221;42.656;21.156;2022-10-16T06:13:31;27.27;;;13.77;;
32198;SDS011;19221;42.656;21.156;2022-10-16T06:15:58;22.85;;;15.27;;
32198;SDS011;19221;42.656;21.156;2022-10-16T06:18:24;20.48;;;15.10;;
32198;SDS011;19221;42.656;21.156;2022-10-16T06:20:50;21.55;;;15.57;;
32198;SDS011;19221;42.656;21.156;2022-10-16T06:23:16;32.15;;;17.08;;
32198;SDS011;19221;42.656;21.156;2022-10-16T06:25:41;42.13;;;19.83;;
32198;SDS011;19221;42.656;21.156;2022-10-16T06:28:07;43.05;;;26.40;;
32198;SDS011;19221;42.656;21.156;2022-10-16T06:30:33;34.65;;;22.35;;
32198;SDS011;19221;42.656;21.156;2022-10-16T06:32:58;37.42;;;22.17;;
32198;SDS011;19221;42.656;21.156;2022-10-16T06:35:24;36.35;;;21.48;;
32198;SDS011;19221;42.656;21.156;2022-10-16T06:37:50;32.65;;;21.27;;
32198;SDS011;19221;42.656;21.156;2022-10-16T06:40:17;36.70;;;22.10;;
32198;SDS011;19221;42.656;21.156;2022-10-16T06:42:42;35.35;;;21.58;;
32198;SDS011;19221;42.656;21.156;2022-10-16T06:45:08;37.25;;;21.98;;
32198;SDS011;19221;42.656;21.156;2022-10-16T06:47:34;36.65;;;23.42;;
32198;SDS011;19221;42.656;21.156;2022-10-16T06:50:00;36.10;;;23.15;;
32198;SDS011;19221;42.656;21.156;2022-10-16T06:52:27;30.95;;;21.85;;
32198;SDS011;19221;42.656;21.156;2022-10-16T06:54:53;37.50;;;21.20;;
32198;SDS011;19221;42.656;21.156;2022-10-16T06:57:18;34.13;;;21.50;;
32198;SDS011;19221;42.656;21.156;2022-10-16T06:59:44;32.83;;;19.48;;
32198;SDS011;19221;42.656;21.156;2022-10-16T07:02:10;26.20;;;18.13;;
32198;SDS011;19221;42.656;21.156;2022-10-16T07:04:35;27.90;;;17.83;;
32198;SDS011;19221;42.656;21.156;2022-10-16T07:07:01;25.40;;;17.58;;
32198;SDS011;19221;42.656;21.156;2022-10-16T07:09:27;26.38;;;16.70;;
32198;SDS011;19221;42.656;21.156;2022-10-16T07:11:53;29.30;;;16.85;;
32198;SDS011;19221;42.656;21.156;2022-10-16T07:14:19;24.90;;;16.42;;
32198;SDS011;19221;42.656;21.156;2022-10-16T07:16:45;26.10;;;17.35;;
32198;SDS011;19221;42.656;21.156;2022-10-16T07:19:11;29.73;;;18.52;;
32198;SDS011;19221;42.656;21.156;2022-10-16T07:21:38;28.17;;;17.85;;
32198;SDS011;19221;42.656;21.156;2022-10-16T07:24:05;28.88;;;17.60;;
32198;SDS011;19221;42.656;21.156;2022-10-16T07:26:32;29.75;;;18.30;;
32198;SDS011;19221;42.656;21.156;2022-10-16T07:28:58;31.35;;;18.17;;
32198;SDS011;19221;42.656;21.156;2022-10-16T07:31:26;23.85;;;18.70;;
32198;SDS011;19221;42.656;21.156;2022-10-16T07:33:52;26.27;;;18.83;;
32198;SDS011;19221;42.656;21.156;2022-10-16T07:36:18;28.42;;;18.98;;
32198;SDS011;19221;42.656;21.156;2022-10-16T07:38:44;27.80;;;19.27;;
32198;SDS011;19221;42.656;21.156;2022-10-16T07:41:11;32.47;;;19.35;;
32198;SDS011;19221;42.656;21.156;2022-10-16T07:43:37;28.60;;;21.45;;
32198;SDS011;19221;42.656;21.156;2022-10-16T07:46:03;34.42;;;20.67;;
32198;SDS011;19221;42.656;21.156;2022-10-16T07:48:29;29.65;;;19.50;;
32198;SDS011;19221;42.656;21.156;2022-10-16T07:51:02;31.00;;;20.52;;
32198;SDS011;19221;42.656;21.156;2022-10-16T07:53:28;30.23;;;20.98;;
32198;SDS011;19221;42.656;21.156;2022-10-16T07:55:58;31.63;;;19.85;;
32198;SDS011;19221;42.656;21.156;2022-10-16T07:58:24;38.33;;;21.40;;
32198;SDS011;19221;42.656;21.156;2022-10-16T08:00:50;34.80;;;19.98;;
32198;SDS011;19221;42.656;21.156;2022-10-16T08:03:16;33.15;;;20.80;;
32198;SDS011;19221;42.656;21.156;2022-10-16T08:05:42;36.47;;;21.67;;
32198;SDS011;19221;42.656;21.156;2022-10-16T08:08:11;40.22;;;21.63;;
32198;SDS011;19221;42.656;21.156;2022-10-16T08:10:36;36.97;;;21.77;;
32198;SDS011;19221;42.656;21.156;2022-10-16T08:13:02;34.38;;;23.17;;
32198;SDS011;19221;42.656;21.156;2022-10-16T08:15:29;37.88;;;23.88;;
32198;SDS011;19221;42.656;21.156;2022-10-16T08:17:59;37.10;;;24.67;;
32198;SDS011;19221;42.656;21.156;2022-10-16T08:20:25;38.17;;;22.65;;
32198;SDS011;19221;42.656;21.156;2022-10-16T08:22:51;33.60;;;22.23;;
32198;SDS011;19221;42.656;21.156;2022-10-16T08:25:16;33.90;;;21.75;;
32198;SDS011;19221;42.656;21.156;2022-10-16T08:27:42;32.75;;;22.88;;
32198;SDS011;19221;42.656;21.156;2022-10-16T08:30:09;34.42;;;22.42;;
32198;SDS011;19221;42.656;21.156;2022-10-16T08:32:35;34.30;;;22.63;;
32198;SDS011;19221;42.656;21.156;2022-10-16T08:35:00;38.45;;;23.45;;
32198;SDS011;19221;42.656;21.156;2022-10-16T08:37:29;34.78;;;22.35;;
32198;SDS011;19221;42.656;21.156;2022-10-16T08:39:55;36.30;;;24.08;;
32198;SDS011;19221;42.656;21.156;2022-10-16T08:50:09;36.83;;;22.85;;
32198;SDS011;19221;42.656;21.156;2022-10-16T08:52:35;37.50;;;23.27;;
32198;SDS011;19221;42.656;21.156;2022-10-16T08:55:04;37.15;;;24.45;;
32198;SDS011;19221;42.656;21.156;2022-10-16T08:57:30;35.30;;;25.40;;
32198;SDS011;19221;42.656;21.156;2022-10-16T08:59:59;45.92;;;29.15;;
32198;SDS011;19221;42.656;21.156;2022-10-16T09:02:31;60.95;;;38.13;;
32198;SDS011;19221;42.656;21.156;2022-10-16T09:10:08;35.95;;;24.88;;
32198;SDS011;19221;42.656;21.156;2022-10-16T09:15:16;40.53;;;23.73;;
32198;SDS011;19221;42.656;21.156;2022-10-16T09:17:49;38.35;;;23.40;;
32198;SDS011;19221;42.656;21.156;2022-10-16T09:22:46;34.28;;;23.80;;
32198;SDS011;19221;42.656;21.156;2022-10-16T09:25:13;40.25;;;24.10;;
32198;SDS011;19221;42.656;21.156;2022-10-16T09:27:39;43.53;;;25.13;;
32198;SDS011;19221;42.656;21.156;2022-10-16T09:30:39;38.97;;;23.73;;
32198;SDS011;19221;42.656;21.156;2022-10-16T09:32:58;37.40;;;22.80;;
32198;SDS011;19221;42.656;21.156;2022-10-16T09:35:30;32.83;;;22.48;;
32198;SDS011;19221;42.656;21.156;2022-10-16T09:37:56;36.28;;;23.73;;
32198;SDS011;19221;42.656;21.156;2022-10-16T09:40:29;32.47;;;22.08;;
32198;SDS011;19221;42.656;21.156;2022-10-16T09:43:03;37.95;;;23.52;;
32198;SDS011;19221;42.656;21.156;2022-10-16T09:45:32;32.55;;;21.92;;
32198;SDS011;19221;42.656;21.156;2022-10-16T09:47:57;31.52;;;20.70;;
32198;SDS011;19221;42.656;21.156;2022-10-16T09:50:27;28.98;;;20.33;;
32198;SDS011;19221;42.656;21.156;2022-10-16T09:53:08;38.03;;;22.35;;
32198;SDS011;19221;42.656;21.156;2022-10-16T09:55:35;45.22;;;26.92;;
32198;SDS011;19221;42.656;21.156;2022-10-16T09:58:01;35.15;;;24.38;;
32198;SDS011;19221;42.656;21.156;2022-10-16T10:00:27;41.08;;;25.17;;
32198;SDS011;19221;42.656;21.156;2022-10-16T10:02:53;36.33;;;24.08;;
32198;SDS011;19221;42.656;21.156;2022-10-16T10:05:21;33.20;;;23.75;;
32198;SDS011;19221;42.656;21.156;2022-10-16T10:07:53;36.00;;;23.88;;
32198;SDS011;19221;42.656;21.156;2022-10-16T10:10:20;38.58;;;25.23;;
32198;SDS011;19221;42.656;21.156;2022-10-16T10:12:47;37.28;;;23.90;;
32198;SDS011;19221;42.656;21.156;2022-10-16T10:15:13;32.38;;;22.52;;
32198;SDS011;19221;42.656;21.156;2022-10-16T10:17:48;38.85;;;22.98;;
32198;SDS011;19221;42.656;21.156;2022-10-16T10:22:49;37.17;;;23.23;;
32198;SDS011;19221;42.656;21.156;2022-10-16T10:25:22;40.00;;;23.70;;
32198;SDS011;19221;42.656;21.156;2022-10-16T10:30:35;37.73;;;22.53;;
32198;SDS011;19221;42.656;21.156;2022-10-16T10:35:34;33.67;;;23.55;;
32198;SDS011;19221;42.656;21.156;2022-10-16T10:46:08;42.42;;;27.08;;
32198;SDS011;19221;42.656;21.156;2022-10-16T10:51:25;37.63;;;26.40;;
32198;SDS011;19221;42.656;21.156;2022-10-16T10:58:55;35.35;;;23.27;;
32198;SDS011;19221;42.656;21.156;2022-10-16T11:01:31;36.03;;;24.15;;
32198;SDS011;19221;42.656;21.156;2022-10-16T11:04:19;32.88;;;23.70;;
32198;SDS011;19221;42.656;21.156;2022-10-16T11:06:50;36.70;;;24.05;;
32198;SDS011;19221;42.656;21.156;2022-10-16T11:09:24;37.92;;;23.92;;
32198;SDS011;19221;42.656;21.156;2022-10-16T11:16:43;35.13;;;23.40;;
32198;SDS011;19221;42.656;21.156;2022-10-16T11:21:39;47.22;;;27.88;;
32198;SDS011;19221;42.656;21.156;2022-10-16T11:24:15;36.50;;;22.77;;
32198;SDS011;19221;42.656;21.156;2022-10-16T11:26:44;49.63;;;28.52;;
32198;SDS011;19221;42.656;21.156;2022-10-16T11:29:13;31.65;;;21.17;;
32198;SDS011;19221;42.656;21.156;2022-10-16T11:31:42;29.40;;;19.80;;
32198;SDS011;19221;42.656;21.156;2022-10-16T11:44:21;23.70;;;14.98;;
32198;SDS011;19221;42.656;21.156;2022-10-16T11:47:07;19.75;;;12.90;;
32198;SDS011;19221;42.656;21.156;2022-10-16T11:49:34;15.70;;;11.15;;
32198;SDS011;19221;42.656;21.156;2022-10-16T11:54:49;24.70;;;13.45;;
32198;SDS011;19221;42.656;21.156;2022-10-16T11:57:16;19.25;;;13.40;;
32198;SDS011;19221;42.656;21.156;2022-10-16T11:59:44;19.50;;;12.93;;
32198;SDS011;19221;42.656;21.156;2022-10-16T12:02:28;34.55;;;18.90;;
32198;SDS011;19221;42.656;21.156;2022-10-16T12:07:27;30.40;;;18.08;;
32198;SDS011;19221;42.656;21.156;2022-10-16T12:09:54;28.20;;;13.65;;
32198;SDS011;19221;42.656;21.156;2022-10-16T12:15:00;17.98;;;12.85;;
32198;SDS011;19221;42.656;21.156;2022-10-16T12:17:27;19.13;;;13.05;;
32198;SDS011;19221;42.656;21.156;2022-10-16T12:20:00;19.23;;;12.93;;
32198;SDS011;19221;42.656;21.156;2022-10-16T12:22:27;17.67;;;12.43;;
32198;SDS011;19221;42.656;21.156;2022-10-16T12:24:54;26.27;;;14.68;;
32198;SDS011;19221;42.656;21.156;2022-10-16T12:27:24;22.30;;;13.45;;
32198;SDS011;19221;42.656;21.156;2022-10-16T12:30:00;17.63;;;13.63;;
32198;SDS011;19221;42.656;21.156;2022-10-16T12:34:58;20.40;;;14.43;;
32198;SDS011;19221;42.656;21.156;2022-10-16T12:37:25;26.42;;;13.02;;
32198;SDS011;19221;42.656;21.156;2022-10-16T12:39:52;22.70;;;12.43;;
32198;SDS011;19221;42.656;21.156;2022-10-16T12:42:23;16.77;;;12.95;;
32198;SDS011;19221;42.656;21.156;2022-10-16T12:44:49;19.80;;;13.07;;
32198;SDS011;19221;42.656;21.156;2022-10-16T12:50:22;14.90;;;11.20;;
32198;SDS011;19221;42.656;21.156;2022-10-16T12:52:48;20.48;;;12.52;;
32198;SDS011;19221;42.656;21.156;2022-10-16T12:55:15;16.20;;;12.40;;
32198;SDS011;19221;42.656;21.156;2022-10-16T13:00:24;20.75;;;12.63;;
32198;SDS011;19221;42.656;21.156;2022-10-16T13:18:40;21.33;;;14.80;;
32198;SDS011;19221;42.656;21.156;2022-10-16T13:21:54;21.70;;;14.60;;
32198;SDS011;19221;42.656;21.156;2022-10-16T13:23:58;20.30;;;15.05;;
32198;SDS011;19221;42.656;21.156;2022-10-16T13:29:08;28.55;;;15.07;;
32198;SDS011;19221;42.656;21.156;2022-10-16T13:31:36;23.40;;;14.93;;
32198;SDS011;19221;42.656;21.156;2022-10-16T13:34:03;23.75;;;14.48;;
32198;SDS011;19221;42.656;21.156;2022-10-16T13:36:34;23.77;;;14.82;;
32198;SDS011;19221;42.656;21.156;2022-10-16T13:41:29;22.33;;;14.15;;
32198;SDS011;19221;42.656;21.156;2022-10-16T13:43:54;22.65;;;14.20;;
32198;SDS011;19221;42.656;21.156;2022-10-16T13:46:22;23.25;;;13.98;;
32198;SDS011;19221;42.656;21.156;2022-10-16T13:48:58;22.88;;;13.90;;
32198;SDS011;19221;42.656;21.156;2022-10-16T13:51:24;23.10;;;14.32;;
32198;SDS011;19221;42.656;21.156;2022-10-16T13:53:50;27.80;;;14.02;;
32198;SDS011;19221;42.656;21.156;2022-10-16T13:56:20;28.25;;;14.60;;
32198;SDS011;19221;42.656;21.156;2022-10-16T13:58:57;21.70;;;13.30;;
32198;SDS011;19221;42.656;21.156;2022-10-16T14:01:24;24.55;;;13.85;;
32198;SDS011;19221;42.656;21.156;2022-10-16T14:03:50;25.25;;;14.20;;
32198;SDS011;19221;42.656;21.156;2022-10-16T14:06:17;20.15;;;13.18;;
32198;SDS011;19221;42.656;21.156;2022-10-16T14:08:45;25.55;;;13.07;;
32198;SDS011;19221;42.656;21.156;2022-10-16T14:11:19;20.70;;;12.98;;
32198;SDS011;19221;42.656;21.156;2022-10-16T14:13:46;22.77;;;12.93;;
32198;SDS011;19221;42.656;21.156;2022-10-16T14:16:19;24.25;;;13.32;;
32198;SDS011;19221;42.656;21.156;2022-10-16T14:18:55;23.42;;;13.60;;
32198;SDS011;19221;42.656;21.156;2022-10-16T14:21:21;30.30;;;13.93;;
32198;SDS011;19221;42.656;21.156;2022-10-16T14:23:47;22.08;;;12.13;;
32198;SDS011;19221;42.656;21.156;2022-10-16T14:26:13;21.70;;;12.13;;
32198;SDS011;19221;42.656;21.156;2022-10-16T14:28:40;22.75;;;12.30;;
32198;SDS011;19221;42.656;21.156;2022-10-16T14:33:44;14.05;;;10.73;;
32198;SDS011;19221;42.656;21.156;2022-10-16T14:36:11;21.38;;;11.60;;
32198;SDS011;19221;42.656;21.156;2022-10-16T14:38:38;21.10;;;11.02;;
32198;SDS011;19221;42.656;21.156;2022-10-16T14:41:10;17.90;;;11.90;;
32198;SDS011;19221;42.656;21.156;2022-10-16T14:43:36;19.25;;;11.30;;
32198;SDS011;19221;42.656;21.156;2022-10-16T14:46:03;20.95;;;11.77;;
32198;SDS011;19221;42.656;21.156;2022-10-16T14:48:31;22.35;;;12.60;;
32198;SDS011;19221;42.656;21.156;2022-10-16T14:50:57;25.55;;;12.23;;
32198;SDS011;19221;42.656;21.156;2022-10-16T14:53:23;17.60;;;10.68;;
32198;SDS011;19221;42.656;21.156;2022-10-16T14:55:49;18.13;;;11.25;;
32198;SDS011;19221;42.656;21.156;2022-10-16T14:58:15;20.77;;;11.85;;
32198;SDS011;19221;42.656;21.156;2022-10-16T15:00:41;19.80;;;10.38;;
32198;SDS011;19221;42.656;21.156;2022-10-16T15:03:07;18.20;;;11.20;;
32198;SDS011;19221;42.656;21.156;2022-10-16T15:05:33;19.05;;;11.27;;
32198;SDS011;19221;42.656;21.156;2022-10-16T15:07:58;19.17;;;11.88;;
32198;SDS011;19221;42.656;21.156;2022-10-16T15:10:26;15.23;;;9.57;;
32198;SDS011;19221;42.656;21.156;2022-10-16T15:12:53;11.35;;;8.48;;
32198;SDS011;19221;42.656;21.156;2022-10-16T15:18:16;10.75;;;7.90;;
32198;SDS011;19221;42.656;21.156;2022-10-16T15:20:47;9.60;;;7.90;;
32198;SDS011;19221;42.656;21.156;2022-10-16T15:23:14;12.52;;;7.90;;
32198;SDS011;19221;42.656;21.156;2022-10-16T15:25:44;17.77;;;8.80;;
32198;SDS011;19221;42.656;21.156;2022-10-16T15:28:10;14.65;;;8.32;;
32198;SDS011;19221;42.656;21.156;2022-10-16T15:30:36;14.48;;;9.40;;
32198;SDS011;19221;42.656;21.156;2022-10-16T15:33:02;14.00;;;9.07;;
32198;SDS011;19221;42.656;21.156;2022-10-16T15:35:28;16.52;;;10.25;;
32198;SDS011;19221;42.656;21.156;2022-10-16T15:37:55;15.82;;;11.27;;
32198;SDS011;19221;42.656;21.156;2022-10-16T15:40:21;32.50;;;19.92;;
32198;SDS011;19221;42.656;21.156;2022-10-16T15:42:48;46.08;;;26.95;;
32198;SDS011;19221;42.656;21.156;2022-10-16T15:45:14;31.65;;;18.80;;
32198;SDS011;19221;42.656;21.156;2022-10-16T15:47:42;31.60;;;15.68;;
32198;SDS011;19221;42.656;21.156;2022-10-16T15:50:12;30.20;;;16.98;;
32198;SDS011;19221;42.656;21.156;2022-10-16T15:52:38;22.80;;;13.85;;
32198;SDS011;19221;42.656;21.156;2022-10-16T15:55:08;23.63;;;13.82;;
32198;SDS011;19221;42.656;21.156;2022-10-16T15:57:34;20.83;;;13.15;;
32198;SDS011;19221;42.656;21.156;2022-10-16T15:59:59;23.98;;;14.18;;
32198;SDS011;19221;42.656;21.156;2022-10-16T16:02:25;22.88;;;14.50;;
32198;SDS011;19221;42.656;21.156;2022-10-16T16:04:51;22.83;;;13.73;;
32198;SDS011;19221;42.656;21.156;2022-10-16T16:07:17;26.10;;;17.05;;
32198;SDS011;19221;42.656;21.156;2022-10-16T16:09:43;29.13;;;16.23;;